sensor_id;sensor_type;location;lat;lon;timestamp;pressure;altitude;pressure_sealevel;temperature;humidity
53960;BME280;39866;48.638;-2.020;2022-09-19T00:01:41;102086.06;;;20.31;46.66
53960;BME280;39866;48.638;-2.020;2022-09-19T00:04:12;102082.56;;;20.29;46.56
53960;BME280;39866;48.638;-2.020;2022-09-19T00:06:40;102087.06;;;20.28;46.56
53960;BME280;39866;48.638;-2.020;2022-09-19T00:09:07;102093.31;;;20.31;46.69
53960;BME280;39866;48.638;-2.020;2022-09-19T00:11:36;102092.44;;;20.30;46.60
53960;BME280;39866;48.638;-2.020;2022-09-19T00:14:01;102093.44;;;20.27;46.79
53960;BME280;39866;48.638;-2.020;2022-09-19T00:16:34;102087.25;;;20.25;46.79
53960;BME280;39866;48.638;-2.020;2022-09-19T00:19:01;102089.88;;;20.27;47.29
53960;BME280;39866;48.638;-2.020;2022-09-19T00:21:29;102086.41;;;20.23;47.21
53960;BME280;39866;48.638;-2.020;2022-09-19T00:23:56;102090.16;;;20.21;47.17
53960;BME280;39866;48.638;-2.020;2022-09-19T00:26:40;102091.31;;;20.15;47.17
53960;BME280;39866;48.638;-2.020;2022-09-19T00:29:07;102082.25;;;20.16;47.32
53960;BME280;39866;48.638;-2.020;2022-09-19T00:31:33;102082.47;;;20.12;47.38
53960;BME280;39866;48.638;-2.020;2022-09-19T00:33:59;102084.25;;;20.13;47.22
53960;BME280;39866;48.638;-2.020;2022-09-19T00:36:26;102083.28;;;20.14;47.41
53960;BME280;39866;48.638;-2.020;2022-09-19T00:38:51;102087.00;;;20.11;47.58
53960;BME280;39866;48.638;-2.020;2022-09-19T00:41:22;102082.56;;;20.10;47.59
53960;BME280;39866;48.638;-2.020;2022-09-19T00:44:03;102078.97;;;20.10;47.56
53960;BME280;39866;48.638;-2.020;2022-09-19T00:46:32;102083.34;;;20.12;47.75
53960;BME280;39866;48.638;-2.020;2022-09-19T00:49:05;102074.59;;;20.07;47.71
53960;BME280;39866;48.638;-2.020;2022-09-19T00:51:34;102081.72;;;20.08;47.81
53960;BME280;39866;48.638;-2.020;2022-09-19T00:54:09;102083.78;;;20.03;47.62
53960;BME280;39866;48.638;-2.020;2022-09-19T00:56:46;102081.09;;;20.03;47.76
53960;BME280;39866;48.638;-2.020;2022-09-19T00:59:13;102089.34;;;20.00;48.24
53960;BME280;39866;48.638;-2.020;2022-09-19T01:01:39;102089.50;;;19.97;47.92
53960;BME280;39866;48.638;-2.020;2022-09-19T01:04:16;102089.91;;;19.88;48.08
53960;BME280;39866;48.638;-2.020;2022-09-19T01:12:24;102078.94;;;19.72;48.47
53960;BME280;39866;48.638;-2.020;2022-09-19T01:15:00;102087.53;;;19.61;48.45
53960;BME280;39866;48.638;-2.020;2022-09-19T01:17:37;102087.84;;;19.53;48.79
53960;BME280;39866;48.638;-2.020;2022-09-19T01:28:21;102077.38;;;19.46;48.99
53960;BME280;39866;48.638;-2.020;2022-09-19T01:34:12;102076.56;;;19.44;49.56
53960;BME280;39866;48.638;-2.020;2022-09-19T01:36:45;102076.50;;;19.45;49.61
53960;BME280;39866;48.638;-2.020;2022-09-19T01:39:15;102082.78;;;19.46;49.70
53960;BME280;39866;48.638;-2.020;2022-09-19T01:41:52;102081.16;;;19.42;49.68
53960;BME280;39866;48.638;-2.020;2022-09-19T01:44:21;102084.69;;;19.44;49.72
53960;BME280;39866;48.638;-2.020;2022-09-19T01:50:34;102083.72;;;19.45;49.67
53960;BME280;39866;48.638;-2.020;2022-09-19T01:58:37;102072.19;;;19.41;51.27
53960;BME280;39866;48.638;-2.020;2022-09-19T02:10:00;102075.09;;;19.16;53.18
53960;BME280;39866;48.638;-2.020;2022-09-19T02:12:27;102080.34;;;19.19;53.10
53960;BME280;39866;48.638;-2.020;2022-09-19T02:14:56;102073.94;;;19.22;53.50
53960;BME280;39866;48.638;-2.020;2022-09-19T02:17:51;102064.16;;;19.19;53.41
53960;BME280;39866;48.638;-2.020;2022-09-19T02:20:31;102076.78;;;19.19;53.78
53960;BME280;39866;48.638;-2.020;2022-09-19T02:23:08;102074.13;;;19.17;53.95
53960;BME280;39866;48.638;-2.020;2022-09-19T02:25:35;102075.97;;;19.17;54.51
53960;BME280;39866;48.638;-2.020;2022-09-19T02:28:07;102068.94;;;19.13;54.26
53960;BME280;39866;48.638;-2.020;2022-09-19T02:30:34;102073.34;;;19.15;54.47
53960;BME280;39866;48.638;-2.020;2022-09-19T02:33:02;102067.13;;;19.13;54.77
53960;BME280;39866;48.638;-2.020;2022-09-19T02:38:24;102084.66;;;19.03;55.18
53960;BME280;39866;48.638;-2.020;2022-09-19T02:41:04;102075.16;;;18.94;55.72
53960;BME280;39866;48.638;-2.020;2022-09-19T02:46:17;102067.16;;;18.91;55.82
53960;BME280;39866;48.638;-2.020;2022-09-19T02:49:14;102063.91;;;18.83;56.16
53960;BME280;39866;48.638;-2.020;2022-09-19T02:51:53;102064.41;;;18.93;56.07
53960;BME280;39866;48.638;-2.020;2022-09-19T02:54:23;102068.72;;;18.97;55.94
53960;BME280;39866;48.638;-2.020;2022-09-19T02:56:53;102063.88;;;19.05;55.54
53960;BME280;39866;48.638;-2.020;2022-09-19T02:59:25;102068.06;;;19.12;55.55
53960;BME280;39866;48.638;-2.020;2022-09-19T03:02:00;102046.56;;;19.11;55.58
53960;BME280;39866;48.638;-2.020;2022-09-19T03:04:31;102059.22;;;19.09;55.46
53960;BME280;39866;48.638;-2.020;2022-09-19T03:07:16;102056.53;;;19.09;55.03
53960;BME280;39866;48.638;-2.020;2022-09-19T03:10:04;102060.09;;;19.09;54.91
53960;BME280;39866;48.638;-2.020;2022-09-19T03:12:44;102054.03;;;19.04;55.27
53960;BME280;39866;48.638;-2.020;2022-09-19T03:15:13;102053.91;;;19.07;55.32
53960;BME280;39866;48.638;-2.020;2022-09-19T03:17:41;102052.94;;;19.08;55.27
53960;BME280;39866;48.638;-2.020;2022-09-19T03:20:09;102048.63;;;19.04;55.29
53960;BME280;39866;48.638;-2.020;2022-09-19T03:22:40;102050.38;;;19.05;55.68
53960;BME280;39866;48.638;-2.020;2022-09-19T03:25:09;102051.44;;;19.01;55.90
53960;BME280;39866;48.638;-2.020;2022-09-19T03:27:35;102053.41;;;18.97;55.85
53960;BME280;39866;48.638;-2.020;2022-09-19T03:30:07;102054.47;;;18.93;56.25
53960;BME280;39866;48.638;-2.020;2022-09-19T03:32:34;102056.19;;;18.96;56.33
53960;BME280;39866;48.638;-2.020;2022-09-19T03:34:59;102054.34;;;18.96;56.36
53960;BME280;39866;48.638;-2.020;2022-09-19T03:37:25;102045.38;;;18.96;56.40
53960;BME280;39866;48.638;-2.020;2022-09-19T03:39:51;102056.84;;;19.01;56.53
53960;BME280;39866;48.638;-2.020;2022-09-19T03:42:16;102052.41;;;19.00;56.32
53960;BME280;39866;48.638;-2.020;2022-09-19T03:44:44;102048.09;;;18.96;56.42
53960;BME280;39866;48.638;-2.020;2022-09-19T03:47:10;102056.25;;;18.94;56.29
53960;BME280;39866;48.638;-2.020;2022-09-19T03:49:36;102054.56;;;18.92;56.81
53960;BME280;39866;48.638;-2.020;2022-09-19T03:52:01;102051.03;;;18.90;56.96
53960;BME280;39866;48.638;-2.020;2022-09-19T03:54:27;102056.28;;;18.93;57.01
53960;BME280;39866;48.638;-2.020;2022-09-19T03:56:53;102059.41;;;18.84;56.87
53960;BME280;39866;48.638;-2.020;2022-09-19T03:59:18;102060.06;;;18.89;56.96
53960;BME280;39866;48.638;-2.020;2022-09-19T04:01:44;102051.03;;;18.90;57.07
53960;BME280;39866;48.638;-2.020;2022-09-19T04:04:10;102067.38;;;18.87;56.66
53960;BME280;39866;48.638;-2.020;2022-09-19T04:06:36;102064.16;;;18.77;57.01
53960;BME280;39866;48.638;-2.020;2022-09-19T04:09:01;102061.25;;;18.81;56.64
53960;BME280;39866;48.638;-2.020;2022-09-19T04:11:27;102060.19;;;18.86;56.96
53960;BME280;39866;48.638;-2.020;2022-09-19T04:13:53;102068.16;;;18.89;56.65
53960;BME280;39866;48.638;-2.020;2022-09-19T04:16:22;102072.63;;;18.90;56.51
53960;BME280;39866;48.638;-2.020;2022-09-19T04:18:49;102070.88;;;18.89;56.43
53960;BME280;39866;48.638;-2.020;2022-09-19T04:21:16;102071.81;;;18.88;56.14
53960;BME280;39866;48.638;-2.020;2022-09-19T04:23:42;102074.50;;;18.88;56.35
53960;BME280;39866;48.638;-2.020;2022-09-19T04:26:08;102080.66;;;18.91;56.25
53960;BME280;39866;48.638;-2.020;2022-09-19T04:28:34;102074.41;;;18.91;56.39
53960;BME280;39866;48.638;-2.020;2022-09-19T04:31:02;102061.97;;;18.87;56.15
53960;BME280;39866;48.638;-2.020;2022-09-19T04:33:27;102052.38;;;18.79;56.28
53960;BME280;39866;48.638;-2.020;2022-09-19T04:35:53;102073.53;;;18.90;56.24
53960;BME280;39866;48.638;-2.020;2022-09-19T04:38:22;102066.34;;;18.89;56.10
53960;BME280;39866;48.638;-2.020;2022-09-19T04:40:49;102066.50;;;18.86;56.10
53960;BME280;39866;48.638;-2.020;2022-09-19T04:43:17;102069.25;;;18.85;55.60
53960;BME280;39866;48.638;-2.020;2022-09-19T04:45:44;102076.59;;;18.81;55.76
53960;BME280;39866;48.638;-2.020;2022-09-19T04:48:13;102079.47;;;18.76;56.07
53960;BME280;39866;48.638;-2.020;2022-09-19T04:50:38;102082.13;;;18.78;56.30
53960;BME280;39866;48.638;-2.020;2022-09-19T04:53:04;102083.91;;;18.77;55.68
53960;BME280;39866;48.638;-2.020;2022-09-19T04:55:30;102074.19;;;18.73;55.78
53960;BME280;39866;48.638;-2.020;2022-09-19T04:57:56;102080.22;;;18.80;55.71
53960;BME280;39866;48.638;-2.020;2022-09-19T05:00:24;102073.00;;;18.80;55.74
53960;BME280;39866;48.638;-2.020;2022-09-19T05:03:09;102077.59;;;18.78;55.83
53960;BME280;39866;48.638;-2.020;2022-09-19T05:05:38;102068.69;;;18.76;55.56
53960;BME280;39866;48.638;-2.020;2022-09-19T05:08:10;102073.13;;;18.77;55.71
53960;BME280;39866;48.638;-2.020;2022-09-19T05:10:35;102072.22;;;18.78;55.64
53960;BME280;39866;48.638;-2.020;2022-09-19T05:13:01;102067.72;;;18.77;55.86
53960;BME280;39866;48.638;-2.020;2022-09-19T05:15:26;102074.91;;;18.78;55.85
53960;BME280;39866;48.638;-2.020;2022-09-19T05:17:52;102072.25;;;18.77;56.17
53960;BME280;39866;48.638;-2.020;2022-09-19T05:20:19;102070.38;;;18.79;56.40
53960;BME280;39866;48.638;-2.020;2022-09-19T05:22:45;102070.38;;;18.79;56.53
53960;BME280;39866;48.638;-2.020;2022-09-19T05:25:10;102056.03;;;18.78;56.92
53960;BME280;39866;48.638;-2.020;2022-09-19T05:27:36;102062.50;;;18.74;57.02
53960;BME280;39866;48.638;-2.020;2022-09-19T05:30:03;102060.72;;;18.73;57.04
53960;BME280;39866;48.638;-2.020;2022-09-19T05:32:29;102058.97;;;18.72;56.81
53960;BME280;39866;48.638;-2.020;2022-09-19T05:34:54;102066.25;;;18.70;57.01
53960;BME280;39866;48.638;-2.020;2022-09-19T05:37:26;102077.06;;;18.69;56.92
53960;BME280;39866;48.638;-2.020;2022-09-19T05:39:51;102076.19;;;18.70;56.76
53960;BME280;39866;48.638;-2.020;2022-09-19T05:42:17;102071.66;;;18.70;57.13
53960;BME280;39866;48.638;-2.020;2022-09-19T05:44:42;102066.25;;;18.69;57.12
53960;BME280;39866;48.638;-2.020;2022-09-19T05:47:07;102070.63;;;18.73;57.09
53960;BME280;39866;48.638;-2.020;2022-09-19T05:49:33;102064.25;;;18.75;57.08
53960;BME280;39866;48.638;-2.020;2022-09-19T05:52:01;102064.31;;;18.74;56.95
53960;BME280;39866;48.638;-2.020;2022-09-19T05:54:46;102068.97;;;18.70;57.30
53960;BME280;39866;48.638;-2.020;2022-09-19T05:57:12;102079.75;;;18.70;57.45
53960;BME280;39866;48.638;-2.020;2022-09-19T05:59:37;102085.94;;;18.72;57.29
53960;BME280;39866;48.638;-2.020;2022-09-19T06:02:04;102089.66;;;18.68;57.39
53960;BME280;39866;48.638;-2.020;2022-09-19T06:04:30;102090.53;;;18.70;57.60
53960;BME280;39866;48.638;-2.020;2022-09-19T06:06:56;102091.41;;;18.69;57.70
53960;BME280;39866;48.638;-2.020;2022-09-19T06:09:21;102089.47;;;18.74;57.46
53960;BME280;39866;48.638;-2.020;2022-09-19T06:11:46;102097.38;;;18.79;57.78
53960;BME280;39866;48.638;-2.020;2022-09-19T06:14:12;102102.66;;;18.82;58.12
53960;BME280;39866;48.638;-2.020;2022-09-19T06:16:40;102102.44;;;18.87;57.79
53960;BME280;39866;48.638;-2.020;2022-09-19T06:19:07;102097.19;;;18.84;58.02
53960;BME280;39866;48.638;-2.020;2022-09-19T06:21:32;102095.16;;;18.89;57.54
53960;BME280;39866;48.638;-2.020;2022-09-19T06:23:58;102100.22;;;18.96;57.60
53960;BME280;39866;48.638;-2.020;2022-09-19T06:26:23;102106.31;;;19.01;57.59
53960;BME280;39866;48.638;-2.020;2022-09-19T06:28:48;102103.47;;;19.04;57.47
53960;BME280;39866;48.638;-2.020;2022-09-19T06:31:14;102109.63;;;19.08;57.36
53960;BME280;39866;48.638;-2.020;2022-09-19T06:33:42;102107.88;;;19.07;57.31
53960;BME280;39866;48.638;-2.020;2022-09-19T06:36:09;102109.84;;;19.03;57.44
53960;BME280;39866;48.638;-2.020;2022-09-19T06:38:34;102114.03;;;19.11;57.40
53960;BME280;39866;48.638;-2.020;2022-09-19T06:41:00;102114.75;;;19.14;57.23
53960;BME280;39866;48.638;-2.020;2022-09-19T06:43:26;102115.59;;;19.16;57.25
53960;BME280;39866;48.638;-2.020;2022-09-19T06:45:52;102120.31;;;19.11;57.12
53960;BME280;39866;48.638;-2.020;2022-09-19T06:48:18;102123.81;;;19.13;57.12
53960;BME280;39866;48.638;-2.020;2022-09-19T06:50:44;102129.31;;;19.10;57.40
53960;BME280;39866;48.638;-2.020;2022-09-19T06:53:11;102137.44;;;19.10;57.26
53960;BME280;39866;48.638;-2.020;2022-09-19T06:55:36;102132.94;;;19.11;57.85
53960;BME280;39866;48.638;-2.020;2022-09-19T06:58:03;102130.94;;;19.14;57.43
53960;BME280;39866;48.638;-2.020;2022-09-19T07:00:32;102133.53;;;19.17;57.31
53960;BME280;39866;48.638;-2.020;2022-09-19T07:05:30;102145.94;;;19.21;57.23
53960;BME280;39866;48.638;-2.020;2022-09-19T07:07:56;102130.72;;;19.20;57.50
53960;BME280;39866;48.638;-2.020;2022-09-19T07:10:21;102144.84;;;19.27;57.45
53960;BME280;39866;48.638;-2.020;2022-09-19T07:12:53;102143.81;;;19.29;57.44
53960;BME280;39866;48.638;-2.020;2022-09-19T07:15:21;102143.00;;;19.27;57.45
53960;BME280;39866;48.638;-2.020;2022-09-19T07:17:47;102151.91;;;19.29;57.41
53960;BME280;39866;48.638;-2.020;2022-09-19T07:20:12;102145.63;;;19.29;57.57
53960;BME280;39866;48.638;-2.020;2022-09-19T07:22:39;102149.28;;;19.28;57.79
53960;BME280;39866;48.638;-2.020;2022-09-19T07:25:04;102153.81;;;19.27;57.81
53960;BME280;39866;48.638;-2.020;2022-09-19T07:27:32;102160.09;;;19.28;57.83
53960;BME280;39866;48.638;-2.020;2022-09-19T07:29:57;102152.03;;;19.26;57.98
53960;BME280;39866;48.638;-2.020;2022-09-19T07:32:22;102161.75;;;19.30;57.94
53960;BME280;39866;48.638;-2.020;2022-09-19T07:34:48;102163.34;;;19.36;58.05
53960;BME280;39866;48.638;-2.020;2022-09-19T07:37:13;102162.25;;;19.40;57.70
53960;BME280;39866;48.638;-2.020;2022-09-19T07:39:38;102162.94;;;19.45;57.77
53960;BME280;39866;48.638;-2.020;2022-09-19T07:42:04;102161.97;;;19.46;57.53
53960;BME280;39866;48.638;-2.020;2022-09-19T07:44:29;102167.25;;;19.49;57.99
53960;BME280;39866;48.638;-2.020;2022-09-19T07:46:55;102170.69;;;19.53;57.70
53960;BME280;39866;48.638;-2.020;2022-09-19T07:49:39;102173.31;;;19.54;57.44
53960;BME280;39866;48.638;-2.020;2022-09-19T07:52:04;102172.31;;;19.57;57.63
53960;BME280;39866;48.638;-2.020;2022-09-19T07:54:30;102175.78;;;19.61;57.58
53960;BME280;39866;48.638;-2.020;2022-09-19T07:56:55;102178.44;;;19.62;57.70
53960;BME280;39866;48.638;-2.020;2022-09-19T07:59:20;102191.00;;;19.63;57.49
53960;BME280;39866;48.638;-2.020;2022-09-19T08:01:46;102187.38;;;19.64;57.56
53960;BME280;39866;48.638;-2.020;2022-09-19T08:04:11;102185.47;;;19.66;57.62
53960;BME280;39866;48.638;-2.020;2022-09-19T08:06:36;102187.91;;;19.72;57.43
53960;BME280;39866;48.638;-2.020;2022-09-19T08:09:02;102196.81;;;19.74;57.74
53960;BME280;39866;48.638;-2.020;2022-09-19T08:11:27;102189.66;;;19.73;58.13
53960;BME280;39866;48.638;-2.020;2022-09-19T08:13:52;102197.69;;;19.75;57.74
53960;BME280;39866;48.638;-2.020;2022-09-19T08:16:18;102190.41;;;19.77;57.77
53960;BME280;39866;48.638;-2.020;2022-09-19T08:18:43;102205.53;;;19.81;57.81
53960;BME280;39866;48.638;-2.020;2022-09-19T08:21:09;102200.91;;;19.83;57.77
53960;BME280;39866;48.638;-2.020;2022-09-19T08:23:35;102198.09;;;19.86;58.16
53960;BME280;39866;48.638;-2.020;2022-09-19T08:26:04;102208.81;;;19.88;58.01
53960;BME280;39866;48.638;-2.020;2022-09-19T08:28:29;102191.72;;;19.87;57.88
53960;BME280;39866;48.638;-2.020;2022-09-19T08:31:01;102195.13;;;19.92;57.87
53960;BME280;39866;48.638;-2.020;2022-09-19T08:33:27;102203.94;;;19.96;57.63
53960;BME280;39866;48.638;-2.020;2022-09-19T08:35:53;102208.44;;;19.97;57.69
53960;BME280;39866;48.638;-2.020;2022-09-19T08:38:18;102198.53;;;19.96;57.94
53960;BME280;39866;48.638;-2.020;2022-09-19T08:40:54;102203.16;;;19.94;57.85
53960;BME280;39866;48.638;-2.020;2022-09-19T08:51:26;102215.59;;;19.98;56.80
53960;BME280;39866;48.638;-2.020;2022-09-19T08:54:15;102214.59;;;20.00;56.63
53960;BME280;39866;48.638;-2.020;2022-09-19T08:56:43;102208.97;;;20.05;56.48
53960;BME280;39866;48.638;-2.020;2022-09-19T08:59:18;102219.63;;;20.08;56.08
53960;BME280;39866;48.638;-2.020;2022-09-19T09:01:46;102216.78;;;20.11;56.07
53960;BME280;39866;48.638;-2.020;2022-09-19T09:04:25;102220.44;;;20.10;55.68
53960;BME280;39866;48.638;-2.020;2022-09-19T09:07:20;102219.56;;;20.10;55.47
53960;BME280;39866;48.638;-2.020;2022-09-19T09:12:53;102222.16;;;20.13;55.13
53960;BME280;39866;48.638;-2.020;2022-09-19T09:20:47;102233.50;;;20.21;54.48
53960;BME280;39866;48.638;-2.020;2022-09-19T09:23:21;102228.75;;;20.26;53.93
53960;BME280;39866;48.638;-2.020;2022-09-19T09:25:57;102233.06;;;20.30;53.69
53960;BME280;39866;48.638;-2.020;2022-09-19T09:31:17;102227.72;;;20.28;53.22
53960;BME280;39866;48.638;-2.020;2022-09-19T09:34:00;102229.31;;;20.33;53.03
53960;BME280;39866;48.638;-2.020;2022-09-19T09:36:36;102230.28;;;20.32;51.92
53960;BME280;39866;48.638;-2.020;2022-09-19T09:39:33;102225.53;;;20.37;52.11
53960;BME280;39866;48.638;-2.020;2022-09-19T09:42:17;102225.41;;;20.40;51.14
53960;BME280;39866;48.638;-2.020;2022-09-19T09:48:00;102230.59;;;20.44;49.76
53960;BME280;39866;48.638;-2.020;2022-09-19T09:53:17;102226.59;;;20.53;49.38
53960;BME280;39866;48.638;-2.020;2022-09-19T09:56:02;102232.75;;;20.57;49.19
53960;BME280;39866;48.638;-2.020;2022-09-19T09:58:57;102225.59;;;20.56;49.00
53960;BME280;39866;48.638;-2.020;2022-09-19T10:01:47;102224.50;;;20.60;49.21
53960;BME280;39866;48.638;-2.020;2022-09-19T10:04:44;102229.81;;;20.61;49.12
53960;BME280;39866;48.638;-2.020;2022-09-19T10:10:14;102231.75;;;20.59;48.57
53960;BME280;39866;48.638;-2.020;2022-09-19T10:12:49;102226.03;;;20.65;48.29
53960;BME280;39866;48.638;-2.020;2022-09-19T10:15:21;102233.25;;;20.65;47.82
53960;BME280;39866;48.638;-2.020;2022-09-19T10:17:56;102231.94;;;20.73;48.09
53960;BME280;39866;48.638;-2.020;2022-09-19T10:20:50;102226.41;;;20.76;48.53
53960;BME280;39866;48.638;-2.020;2022-09-19T10:23:21;102230.47;;;20.85;48.15
53960;BME280;39866;48.638;-2.020;2022-09-19T10:26:21;102238.69;;;20.84;47.66
53960;BME280;39866;48.638;-2.020;2022-09-19T10:28:52;102241.41;;;20.84;47.98
53960;BME280;39866;48.638;-2.020;2022-09-19T10:31:34;102237.88;;;20.82;47.88
53960;BME280;39866;48.638;-2.020;2022-09-19T10:34:01;102239.69;;;20.81;47.83
53960;BME280;39866;48.638;-2.020;2022-09-19T10:36:31;102233.63;;;20.76;46.89
53960;BME280;39866;48.638;-2.020;2022-09-19T10:39:07;102225.94;;;20.86;47.44
53960;BME280;39866;48.638;-2.020;2022-09-19T10:41:34;102226.84;;;20.86;47.72
53960;BME280;39866;48.638;-2.020;2022-09-19T10:44:03;102238.38;;;20.90;47.42
53960;BME280;39866;48.638;-2.020;2022-09-19T10:46:41;102227.50;;;20.91;47.37
53960;BME280;39866;48.638;-2.020;2022-09-19T10:49:44;102232.09;;;20.89;47.38
53960;BME280;39866;48.638;-2.020;2022-09-19T10:52:12;102230.13;;;20.93;46.69
53960;BME280;39866;48.638;-2.020;2022-09-19T10:54:45;102235.31;;;20.97;46.82
53960;BME280;39866;48.638;-2.020;2022-09-19T10:57:28;102232.81;;;20.93;46.35
53960;BME280;39866;48.638;-2.020;2022-09-19T10:59:59;102221.44;;;20.86;45.85
53960;BME280;39866;48.638;-2.020;2022-09-19T11:02:27;102230.84;;;20.96;46.16
53960;BME280;39866;48.638;-2.020;2022-09-19T11:04:55;102234.44;;;20.97;46.16
53960;BME280;39866;48.638;-2.020;2022-09-19T11:07:25;102221.84;;;20.96;45.65
53960;BME280;39866;48.638;-2.020;2022-09-19T11:09:57;102227.28;;;20.96;45.97
53960;BME280;39866;48.638;-2.020;2022-09-19T11:12:27;102224.66;;;20.94;45.81
53960;BME280;39866;48.638;-2.020;2022-09-19T11:14:56;102227.28;;;20.96;46.08
53960;BME280;39866;48.638;-2.020;2022-09-19T11:25:59;102229.53;;;21.05;44.99
53960;BME280;39866;48.638;-2.020;2022-09-19T11:28:49;102230.47;;;21.04;45.75
53960;BME280;39866;48.638;-2.020;2022-09-19T11:39:59;102218.19;;;20.97;46.56
53960;BME280;39866;48.638;-2.020;2022-09-19T11:45:12;102223.22;;;21.05;44.85
53960;BME280;39866;48.638;-2.020;2022-09-19T11:50:36;102218.09;;;21.17;45.24
53960;BME280;39866;48.638;-2.020;2022-09-19T12:04:48;102225.19;;;21.20;46.80
53960;BME280;39866;48.638;-2.020;2022-09-19T12:10:12;102230.66;;;21.18;45.49
53960;BME280;39866;48.638;-2.020;2022-09-19T12:12:40;102224.75;;;21.10;45.27
53960;BME280;39866;48.638;-2.020;2022-09-19T12:15:19;102226.94;;;21.21;44.84
53960;BME280;39866;48.638;-2.020;2022-09-19T12:17:59;102220.78;;;21.36;44.42
53960;BME280;39866;48.638;-2.020;2022-09-19T12:20:36;102221.03;;;21.30;44.88
53960;BME280;39866;48.638;-2.020;2022-09-19T12:25:57;102217.13;;;21.37;44.50
53960;BME280;39866;48.638;-2.020;2022-09-19T12:28:27;102225.03;;;21.23;45.11
53960;BME280;39866;48.638;-2.020;2022-09-19T12:30:56;102219.91;;;21.36;45.10
53960;BME280;39866;48.638;-2.020;2022-09-19T12:33:35;102229.41;;;21.25;45.13
53960;BME280;39866;48.638;-2.020;2022-09-19T12:39:01;102228.09;;;21.34;45.44
53960;BME280;39866;48.638;-2.020;2022-09-19T12:41:52;102220.56;;;21.22;45.64
53960;BME280;39866;48.638;-2.020;2022-09-19T12:47:01;102220.66;;;21.20;45.66
53960;BME280;39866;48.638;-2.020;2022-09-19T12:52:11;102226.94;;;21.21;46.92
53960;BME280;39866;48.638;-2.020;2022-09-19T12:57:38;102224.22;;;21.21;45.68
53960;BME280;39866;48.638;-2.020;2022-09-19T13:00:05;102218.72;;;21.22;46.33
53960;BME280;39866;48.638;-2.020;2022-09-19T13:02:38;102212.56;;;21.38;46.29
53960;BME280;39866;48.638;-2.020;2022-09-19T13:08:02;102231.34;;;21.23;45.70
53960;BME280;39866;48.638;-2.020;2022-09-19T13:10:37;102223.25;;;21.41;45.36
53960;BME280;39866;48.638;-2.020;2022-09-19T13:15:55;102222.16;;;21.45;45.95
53960;BME280;39866;48.638;-2.020;2022-09-19T13:18:25;102224.13;;;21.41;46.33
53960;BME280;39866;48.638;-2.020;2022-09-19T13:21:24;102220.16;;;21.48;46.72
53960;BME280;39866;48.638;-2.020;2022-09-19T13:24:11;102215.28;;;21.55;47.31
53960;BME280;39866;48.638;-2.020;2022-09-19T13:26:38;102211.59;;;21.39;46.08
53960;BME280;39866;48.638;-2.020;2022-09-19T13:29:06;102210.50;;;21.43;46.13
53960;BME280;39866;48.638;-2.020;2022-09-19T13:42:26;102204.75;;;21.84;46.13
53960;BME280;39866;48.638;-2.020;2022-09-19T13:45:11;102203.66;;;21.70;47.03
53960;BME280;39866;48.638;-2.020;2022-09-19T13:47:42;102201.50;;;21.77;46.22
53960;BME280;39866;48.638;-2.020;2022-09-19T13:50:20;102205.69;;;22.00;46.69
53960;BME280;39866;48.638;-2.020;2022-09-19T13:52:51;102207.28;;;22.04;46.44
53960;BME280;39866;48.638;-2.020;2022-09-19T13:55:34;102207.94;;;21.92;46.40
53960;BME280;39866;48.638;-2.020;2022-09-19T13:58:33;102208.00;;;22.08;45.81
53960;BME280;39866;48.638;-2.020;2022-09-19T14:03:41;102196.72;;;22.33;44.41
53960;BME280;39866;48.638;-2.020;2022-09-19T14:09:28;102193.53;;;22.58;44.84
53960;BME280;39866;48.638;-2.020;2022-09-19T14:12:00;102189.97;;;23.05;43.70
53960;BME280;39866;48.638;-2.020;2022-09-19T14:19:49;102194.19;;;24.01;40.07
53960;BME280;39866;48.638;-2.020;2022-09-19T14:25:22;102182.78;;;24.08;41.43
53960;BME280;39866;48.638;-2.020;2022-09-19T14:30:52;102173.69;;;24.09;42.02
53960;BME280;39866;48.638;-2.020;2022-09-19T14:36:46;102174.47;;;24.26;41.78
53960;BME280;39866;48.638;-2.020;2022-09-19T14:45:25;102162.97;;;24.49;42.75
53960;BME280;39866;48.638;-2.020;2022-09-19T14:48:28;102163.28;;;24.02;41.84
53960;BME280;39866;48.638;-2.020;2022-09-19T14:51:17;102159.38;;;24.20;42.19
53960;BME280;39866;48.638;-2.020;2022-09-19T14:53:46;102161.91;;;24.37;41.23
53960;BME280;39866;48.638;-2.020;2022-09-19T14:56:15;102164.13;;;24.59;41.06
53960;BME280;39866;48.638;-2.020;2022-09-19T14:58:49;102162.50;;;24.42;41.23
53960;BME280;39866;48.638;-2.020;2022-09-19T15:01:33;102160.56;;;24.86;40.08
53960;BME280;39866;48.638;-2.020;2022-09-19T15:04:11;102144.50;;;24.11;40.96
53960;BME280;39866;48.638;-2.020;2022-09-19T15:06:45;102161.34;;;24.46;40.24
53960;BME280;39866;48.638;-2.020;2022-09-19T15:09:40;102155.09;;;24.59;38.72
53960;BME280;39866;48.638;-2.020;2022-09-19T15:12:28;102161.16;;;24.21;39.51
53960;BME280;39866;48.638;-2.020;2022-09-19T15:14:56;102166.22;;;24.41;41.00
53960;BME280;39866;48.638;-2.020;2022-09-19T15:17:30;102158.50;;;24.19;40.60
53960;BME280;39866;48.638;-2.020;2022-09-19T15:19:58;102155.78;;;24.48;39.43
53960;BME280;39866;48.638;-2.020;2022-09-19T15:22:31;102155.59;;;24.51;40.93
53960;BME280;39866;48.638;-2.020;2022-09-19T15:25:04;102159.63;;;24.73;39.10
53960;BME280;39866;48.638;-2.020;2022-09-19T15:27:33;102162.09;;;24.34;40.12
53960;BME280;39866;48.638;-2.020;2022-09-19T15:30:21;102157.25;;;24.54;40.23
53960;BME280;39866;48.638;-2.020;2022-09-19T15:32:50;102155.19;;;24.00;40.63
53960;BME280;39866;48.638;-2.020;2022-09-19T15:35:18;102158.63;;;24.46;40.24
53960;BME280;39866;48.638;-2.020;2022-09-19T15:37:45;102156.34;;;24.67;39.06
53960;BME280;39866;48.638;-2.020;2022-09-19T15:40:14;102154.00;;;24.61;40.17
53960;BME280;39866;48.638;-2.020;2022-09-19T15:42:42;102158.50;;;24.62;39.35
53960;BME280;39866;48.638;-2.020;2022-09-19T15:48:09;102153.66;;;24.39;38.20
53960;BME280;39866;48.638;-2.020;2022-09-19T15:50:42;102154.44;;;24.41;40.97